Flight Number: EUR3036 Duration: 11:00
Departure: Helsinki Vantaa (EFHK) at 08:00 Distance: 4494 Nm
Arrival: Miami Int'l (KMIA) at 19:00 Equipment: A340

Weather Information
Helsinki-Vantaa, Finland (EFHK) 60-19N 024-58E 56M Sep 21, 2017 - 04:50 PM EDT / 2017.09.21 2050 UTC
Wind: from the ENE (060 degrees) at 13 MPH (11 KT):0
Visibility: greater than 7 mile(s):0
Sky conditions: mostly cloudy Temperature: 51 F (11 C) Dew Point: 48 F (9 C) Relative Humidity: 87% Pressure (altimeter): 30.36 in. Hg (1028 hPa)
ob: EFHK 212050Z 06011KT 9999 FEW013 SCT017 BKN097 11/09 Q1028 TEMPO BKN013 cycle: 21
Sunrise: 04:08 Sunset: 16:17 (UTC)

MIAMI INTERNATIONAL AIRPORT , FL, United States (KMIA) 25-47N 080-19W 8M Sep 21, 2017 - 04:53 PM EDT / 2017.09.21 2053 UTC
Wind: from the NE (050 degrees) at 8 MPH (7 KT):0
Visibility: 10 mile(s):0
Sky conditions: mostly cloudy Weather: Cumulonimbus clouds, lightning observed Temperature: 87.1 F (30.6 C) Heat index: 97.3 F (36.3 C):1 Dew Point: 75.9 F (24.4 C) Relative Humidity: 69% Pressure (altimeter): 29.89 in. Hg (1012 hPa) Pressure tendency: 0.08 inches (2.7 hPa) lower than three hours ago
ob: KMIA 212053Z 05007KT 10SM SCT030 BKN060 BKN250 31/24 A2989 RMK AO2 LTG DSNT NW SLP121 CB DSNT NW 60156 T03060244 56027 cycle: 21
Sunrise: 11:12 Sunset: 23:15 (UTC)

TAF:2017/09/21 20:54 TAF AMD KMIA 211952Z 2120/2218 VRB05KT P6SM SHRA VCTS SCT030CB BKN045 FM212200 07006KT P6SM SCT035 FM220200 VRB03KT P6SM SCT025 FM221400 07008KT P6SM SCT035

This route has never been flown.

Route map